x

New York Harbor Entrance - 15 Nm Se Of Breezy Point , Ny (44065) Wave Buoy

9:50pm - Mon 31st Aug 2015 All times are EDT. -4 hours from GMT.

  • Sig Wave height 2.6ft
  • Swell Direction
  • Peak Period 9s
  • Average Period 5s
  • Wind
    13mph, 16mph gusts
  • Sea Temp 76°f
  • Air Temp 79°f
  • Sea Pressure 1015mb
  • New York Harbor Entrance - 15 Nm Se Of Breezy Point , Ny
  • New York Harbor Entrance - 15 Nm Se Of Breezy Point , Ny

More Historic Weather Station data

Upgrade to MSW Pro to gain access to the past 30 days of data for over 8000 Wavebouys and Weather Stations around the globe.

Join Pro

Comparision Forecast

View Surf forecast
   
Mon 08/31 9:50pm 2.5ft 9s 5s 13 16 mph 1015mb 76f 79f
8:50pm 2.5ft 9s 5s 13 16 mph 1014.6mb 76f 80f
7:50pm 2.5ft 9s 5s 13 16 mph 1014.1mb 77f 81f
6:50pm 2.5ft 9s 5s 13
mph
1014mb 77f 79f
5:50pm 2.5ft 10s 5s 13 16 mph 1014.2mb 77f 79f
4:50pm 2ft 10s 5s 13 16 mph 1014.3mb 77f 79f
3:50pm 2ft 10s 6s 9 11 mph 1014.9mb 78f 79f
2:50pm 2.5ft 10s 5s 9
mph
1015.4mb 77f 78f
1:50pm 2ft 10s 5s 7 9 mph 1016.2mb 77f 78f
12:50pm 2.5ft 10s 5s 7
mph
1016.8mb 76f 78f
11:50am 2.5ft 10s 5s 7
mph
1016.9mb 76f 77f
10:50am 2.5ft 11s 5s 9
mph
1017.1mb 76f 76f
9:50am 2.5ft 10s 5s 11 13 mph 1016.9mb 76f 76f
8:50am 2.5ft 10s 5s 11 13 mph 1016.9mb 76f 76f
7:50am 3ft 10s 5s 13 16 mph 1016.8mb 76f 76f
6:50am 3ft 10s 4s 13 16 mph 1016.6mb 76f 75f
5:50am 3ft 9s 5s 16 20 mph 1016.2mb 76f 75f
4:50am 2.5ft 9s 5s 13 16 mph 1016mb 76f 76f
3:50am 2.5ft 9s 5s 13 16 mph 1016.3mb 76f 76f
2:50am 2.5ft 10s 5s 13 18 mph 1016.5mb 76f 76f
1:50am 2.5ft 10s 5s 13 16 mph 1016.9mb 76f 77f
12:50am 3ft 10s 5s 13 16 mph 1017.2mb 76f 77f
Sun 08/30 11:50pm 3ft 11s 5s 16
mph
1017.2mb 76f 77f
10:50pm 3.5ft 10s 5s 18 20 mph 1016.9mb 76f 77f
9:50pm 3.5ft 10s 5s 18 20 mph 1016.7mb 76f 77f
8:50pm 3.5ft 10s 4s 18 20 mph 1016.6mb 76f 78f
7:50pm 3.5ft 9s 4s 20 25 mph 1015.9mb 76f 78f
6:50pm 3.5ft 10s 4s 16 18 mph 1015.8mb 76f 78f
5:50pm 3ft 10s 4s 18 20 mph 1016mb 77f 78f
4:50pm 3ft 10s 4s 18 22 mph 1016.4mb 77f 77f
3:50pm 2.5ft 11s 4s 16 20 mph 1017mb 77f 77f
2:50pm 2.5ft 10s 5s 13 18 mph 1017.8mb 76f 77f
1:50pm 2.5ft 10s 5s 11 13 mph 1018.5mb 75f 77f
12:50pm 2.5ft 11s 5s 13
mph
1018.8mb 75f 76f
11:50am 2.5ft 11s 6s 9
mph
1019.4mb 74f 76f
10:50am 2.5ft 11s 5s 9
mph
1019.9mb 76f 75f
9:50am 2.5ft 11s 5s 7 9 mph 1019.7mb 76f 74f
8:50am 2.5ft 11s 5s 9 11 mph 1019.5mb 75f 73f
7:50am 2.5ft 11s 5s 9 11 mph 1019.3mb 75f 73f
6:50am 2.5ft 11s 5s 13 16 mph 1019.1mb 75f 73f
5:50am 3ft 11s 5s 11 16 mph 1018.8mb 75f 73f
4:50am 3ft 11s 5s 13 16 mph 1018.7mb 75f 73f
3:50am 3.5ft 11s 5s 13 18 mph 1018.8mb 75f 74f
2:50am 3ft 11s 5s 18 20 mph 1018.7mb 75f 74f
1:50am 3.5ft 11s 5s 20 22 mph 1019.2mb 75f 74f
12:50am 3ft 11s 4s 20 25 mph 1019.3mb 76f 75f
Sat 08/29 11:50pm 3.5ft 10s 5s 20 25 mph 1019.3mb 76f 75f
10:50pm 3.5ft 11s 4s 20 25 mph 1019.2mb 76f 76f
9:50pm 3.5ft 11s 5s 20 22 mph 1019.3mb 76f 76f
8:50pm 3.5ft 11s 4s 18 22 mph 1019.1mb 76f 76f
7:50pm 3.5ft 11s 5s 18 20 mph 1019.1mb 76f 76f
6:50pm 2.5ft 11s 4s 18 20 mph 1019.2mb 76f 76f
5:50pm 2.5ft 10s 5s 18 20 mph 1019.4mb 76f 77f
4:50pm 2.5ft 11s 6s 16
mph
1019.8mb 77f 77f
3:50pm 2.5ft 11s 7s 11 13 mph 1020.4mb 77f 76f
2:50pm 2.5ft 10s 7s 13
mph
1021mb 77f 76f
1:50pm 2.5ft 11s 8s 9 11 mph 1022mb 77f 76f
12:50pm 2.5ft 11s 8s 7
mph
1022.6mb 78f 75f
11:50am 2.5ft 11s 8s 2 4 mph 1023.1mb 77f 74f
10:50am 2.5ft 11s 8s  -  2 mph 1023.3mb 76f 74f
9:50am 2.5ft 11s 8s 4 7 mph 1023mb 76f 73f
8:50am 2.5ft 11s 7s 4 7 mph 1023mb 75f 73f
7:50am 2.5ft 11s 8s 4 7 mph 1022.8mb 75f 73f
6:50am 2.5ft 11s 8s 7 9 mph 1022.4mb 75f 72f
5:50am 3ft 11s 7s 7 9 mph 1021.8mb 75f 72f
4:50am 2.5ft 10s 8s 7 9 mph 1021.7mb 75f 72f
3:50am 2.5ft 11s 7s 7 9 mph 1021.8mb 75f 72f
2:50am 2.5ft 11s 7s 11 13 mph 1022mb 75f 73f
1:50am 2.5ft 11s 6s 11
mph
1021.9mb 75f 73f
12:50am 2.5ft 11s 6s 11
mph
1022.3mb 76f 73f
Fri 08/28 11:50pm 2.5ft 11s 5s 11 13 mph 1022.3mb 76f 74f
10:50pm 2.5ft 12s 5s 13 16 mph 1022.1mb 76f 74f
9:50pm 2.5ft 10s 5s 16 18 mph 1021.7mb 76f 74f
8:50pm 2.5ft 10s 5s 16 18 mph 1021mb 76f 74f
7:50pm 2.5ft 11s 7s 13 16 mph 1020.6mb 76f 74f
6:50pm 2.5ft 11s 7s 11 13 mph 1020.3mb 77f 74f
5:50pm 2.5ft 10s 7s 11 13 mph 1020.2mb 77f 73f
4:50pm 2.5ft 10s 8s 9 11 mph 1020.2mb 78f 75f
3:50pm 2.5ft 9s 8s 7 9 mph 1020.4mb 78f 75f
2:50pm 2.5ft 11s 8s 2 4 mph 1021.1mb 78f 73f
1:50pm 2ft 9s 8s 2
mph
1021.3mb 78f 72f
12:50pm 2.5ft 11s 8s 2 4 mph 1022mb 77f 71f
11:50am 2.5ft 11s 7s 4
mph
1022.4mb 76f 70f
9:50am 2.5ft 9s 6s 9 11 mph 1021.9mb 75f 69f
8:50am 2.5ft 10s 6s 11 13 mph 1021.3mb 75f 69f
7:50am 2.5ft 10s 6s 9 11 mph 1021mb 75f 69f
6:50am 2.5ft 11s 6s 11 13 mph 1020.5mb 75f 69f
5:50am 2.5ft 9s 6s 11 16 mph 1020mb 75f 69f
4:50am 2.5ft 9s 6s 11 13 mph 1019.7mb 75f 70f
3:50am 2.5ft 10s 6s 11 16 mph 1019.7mb 75f 71f
2:50am 2.5ft 9s 6s 11 13 mph 1019.6mb 76f 71f